sensor_id;sensor_type;location;lat;lon;timestamp;pressure;altitude;pressure_sealevel;temperature;humidity
60307;BME280;46155;52.364;6.580;2023-02-23T04:01:21;100998.31;;;7.86;100.00
60307;BME280;46155;52.364;6.580;2023-02-23T04:04:08;100997.53;;;7.87;100.00
60307;BME280;46155;52.364;6.580;2023-02-23T04:06:55;100997.63;;;7.88;100.00
60307;BME280;46155;52.364;6.580;2023-02-23T04:09:40;101007.06;;;7.86;100.00
60307;BME280;46155;52.364;6.580;2023-02-23T04:12:46;101002.66;;;7.85;100.00
60307;BME280;46155;52.364;6.580;2023-02-23T04:18:16;101009.88;;;7.78;100.00
60307;BME280;46155;52.364;6.580;2023-02-23T04:20:42;101013.28;;;7.76;100.00
60307;BME280;46155;52.364;6.580;2023-02-23T04:23:08;101014.78;;;7.73;100.00
60307;BME280;46155;52.364;6.580;2023-02-23T04:25:33;101015.91;;;7.76;100.00
60307;BME280;46155;52.364;6.580;2023-02-23T04:27:59;101017.97;;;7.81;100.00
60307;BME280;46155;52.364;6.580;2023-02-23T04:30:25;101021.03;;;7.75;100.00
60307;BME280;46155;52.364;6.580;2023-02-23T04:32:52;101020.78;;;7.72;100.00
60307;BME280;46155;52.364;6.580;2023-02-23T04:35:18;101014.19;;;7.65;100.00
60307;BME280;46155;52.364;6.580;2023-02-23T04:37:44;101026.81;;;7.71;100.00
60307;BME280;46155;52.364;6.580;2023-02-23T04:40:09;101027.06;;;7.74;100.00
60307;BME280;46155;52.364;6.580;2023-02-23T04:42:37;101027.72;;;7.71;100.00
60307;BME280;46155;52.364;6.580;2023-02-23T04:45:03;101026.03;;;7.72;100.00
60307;BME280;46155;52.364;6.580;2023-02-23T04:47:29;101029.41;;;7.71;100.00
60307;BME280;46155;52.364;6.580;2023-02-23T04:49:54;101023.19;;;7.69;100.00
60307;BME280;46155;52.364;6.580;2023-02-23T04:52:20;101028.97;;;7.65;100.00
60307;BME280;46155;52.364;6.580;2023-02-23T04:54:45;101028.41;;;7.69;100.00
60307;BME280;46155;52.364;6.580;2023-02-23T04:57:10;101027.72;;;7.71;100.00
60307;BME280;46155;52.364;6.580;2023-02-23T04:59:36;101028.63;;;7.72;100.00
60307;BME280;46155;52.364;6.580;2023-02-23T05:02:01;101027.84;;;7.73;100.00
60307;BME280;46155;52.364;6.580;2023-02-23T05:04:27;101029.69;;;7.74;100.00
60307;BME280;46155;52.364;6.580;2023-02-23T05:06:52;101023.53;;;7.73;100.00
60307;BME280;46155;52.364;6.580;2023-02-23T05:09:17;101033.06;;;7.73;100.00
60307;BME280;46155;52.364;6.580;2023-02-23T05:11:43;101038.31;;;7.73;100.00
60307;BME280;46155;52.364;6.580;2023-02-23T05:14:08;101033.06;;;7.73;100.00
60307;BME280;46155;52.364;6.580;2023-02-23T05:16:35;101034.91;;;7.74;100.00
60307;BME280;46155;52.364;6.580;2023-02-23T05:19:01;101035.56;;;7.71;100.00
60307;BME280;46155;52.364;6.580;2023-02-23T05:21:26;101039.97;;;7.72;100.00
60307;BME280;46155;52.364;6.580;2023-02-23T05:23:51;101034.66;;;7.71;100.00
60307;BME280;46155;52.364;6.580;2023-02-23T05:26:17;101039.97;;;7.72;100.00
60307;BME280;46155;52.364;6.580;2023-02-23T05:28:43;101039.88;;;7.71;100.00
60307;BME280;46155;52.364;6.580;2023-02-23T05:31:09;101036.47;;;7.72;100.00
60307;BME280;46155;52.364;6.580;2023-02-23T05:33:35;101051.25;;;7.71;100.00
60307;BME280;46155;52.364;6.580;2023-02-23T05:36:08;101046.94;;;7.72;100.00
60307;BME280;46155;52.364;6.580;2023-02-23T05:38:34;101049.44;;;7.70;100.00
60307;BME280;46155;52.364;6.580;2023-02-23T05:41:10;101036.13;;;7.67;100.00
60307;BME280;46155;52.364;6.580;2023-02-23T05:43:36;101038.31;;;7.73;100.00
60307;BME280;46155;52.364;6.580;2023-02-23T05:46:15;101046.94;;;7.72;100.00
60307;BME280;46155;52.364;6.580;2023-02-23T05:48:40;101043.53;;;7.73;100.00
60307;BME280;46155;52.364;6.580;2023-02-23T05:51:10;101043.53;;;7.73;100.00
60307;BME280;46155;52.364;6.580;2023-02-23T05:53:36;101053.97;;;7.73;100.00
60307;BME280;46155;52.364;6.580;2023-02-23T05:56:04;101046.94;;;7.72;100.00
60307;BME280;46155;52.364;6.580;2023-02-23T05:58:30;101045.09;;;7.71;100.00
60307;BME280;46155;52.364;6.580;2023-02-23T06:00:55;101046.03;;;7.71;100.00
60307;BME280;46155;52.364;6.580;2023-02-23T06:03:21;101053.06;;;7.72;100.00
60307;BME280;46155;52.364;6.580;2023-02-23T06:05:53;101055.56;;;7.71;100.00
60307;BME280;46155;52.364;6.580;2023-02-23T06:08:19;101058.16;;;7.71;100.00
60307;BME280;46155;52.364;6.580;2023-02-23T06:10:45;101069.44;;;7.70;100.00
60307;BME280;46155;52.364;6.580;2023-02-23T06:13:11;101061.59;;;7.70;100.00
60307;BME280;46155;52.364;6.580;2023-02-23T06:15:37;101059.75;;;7.69;100.00
60307;BME280;46155;52.364;6.580;2023-02-23T06:18:03;101067.59;;;7.69;100.00
60307;BME280;46155;52.364;6.580;2023-02-23T06:20:28;101063.94;;;7.67;100.00
60307;BME280;46155;52.364;6.580;2023-02-23T06:22:53;101069.78;;;7.74;100.00
60307;BME280;46155;52.364;6.580;2023-02-23T06:25:19;101069.66;;;7.73;100.00
60307;BME280;46155;52.364;6.580;2023-02-23T06:27:45;101066.94;;;7.71;100.00
60307;BME280;46155;52.364;6.580;2023-02-23T06:30:11;101082.63;;;7.71;100.00
60307;BME280;46155;52.364;6.580;2023-02-23T06:32:36;101083.50;;;7.72;100.00
60307;BME280;46155;52.364;6.580;2023-02-23T06:35:03;101085.13;;;7.70;100.00
60307;BME280;46155;52.364;6.580;2023-02-23T06:37:30;101085.13;;;7.70;100.00
60307;BME280;46155;52.364;6.580;2023-02-23T06:39:55;101093.50;;;7.66;100.00
60307;BME280;46155;52.364;6.580;2023-02-23T06:42:21;101084.63;;;7.64;100.00
60307;BME280;46155;52.364;6.580;2023-02-23T06:44:46;101093.28;;;7.63;100.00
60307;BME280;46155;52.364;6.580;2023-02-23T06:47:11;101100.31;;;7.64;100.00
60307;BME280;46155;52.364;6.580;2023-02-23T06:49:37;101092.69;;;7.67;100.00
60307;BME280;46155;52.364;6.580;2023-02-23T06:52:05;101089.84;;;7.64;100.00
60307;BME280;46155;52.364;6.580;2023-02-23T06:54:30;101092.34;;;7.62;100.00
60307;BME280;46155;52.364;6.580;2023-02-23T06:56:58;101099.28;;;7.62;100.00
60307;BME280;46155;52.364;6.580;2023-02-23T06:59:23;101099.28;;;7.62;100.00
60307;BME280;46155;52.364;6.580;2023-02-23T07:01:49;101100.75;;;7.58;100.00
60307;BME280;46155;52.364;6.580;2023-02-23T07:04:14;101106.06;;;7.59;100.00
60307;BME280;46155;52.364;6.580;2023-02-23T07:06:39;101103.34;;;7.58;100.00
60307;BME280;46155;52.364;6.580;2023-02-23T07:09:04;101112.56;;;7.53;100.00
60307;BME280;46155;52.364;6.580;2023-02-23T07:11:30;101111.63;;;7.52;100.00
60307;BME280;46155;52.364;6.580;2023-02-23T07:13:58;101112.44;;;7.51;100.00
60307;BME280;46155;52.364;6.580;2023-02-23T07:16:26;101120.28;;;7.51;100.00
60307;BME280;46155;52.364;6.580;2023-02-23T07:18:52;101121.28;;;7.53;100.00
60307;BME280;46155;52.364;6.580;2023-02-23T07:21:18;101130.03;;;7.54;100.00
60307;BME280;46155;52.364;6.580;2023-02-23T07:23:44;101128.34;;;7.54;100.00
60307;BME280;46155;52.364;6.580;2023-02-23T07:26:09;101122.88;;;7.51;100.00
60307;BME280;46155;52.364;6.580;2023-02-23T07:28:36;101131.97;;;7.56;100.00
60307;BME280;46155;52.364;6.580;2023-02-23T07:31:02;101134.69;;;7.58;100.00
60307;BME280;46155;52.364;6.580;2023-02-23T07:33:27;101133.81;;;7.57;100.00
60307;BME280;46155;52.364;6.580;2023-02-23T07:35:52;101129.38;;;7.56;100.00
60307;BME280;46155;52.364;6.580;2023-02-23T07:38:18;101140.88;;;7.58;100.00
60307;BME280;46155;52.364;6.580;2023-02-23T07:40:44;101142.44;;;7.56;100.00
60307;BME280;46155;52.364;6.580;2023-02-23T07:43:09;101148.69;;;7.58;100.00
60307;BME280;46155;52.364;6.580;2023-02-23T07:45:35;101147.88;;;7.59;100.00
60307;BME280;46155;52.364;6.580;2023-02-23T07:48:00;101150.16;;;7.55;100.00
60307;BME280;46155;52.364;6.580;2023-02-23T07:50:26;101144.81;;;7.53;100.00
60307;BME280;46155;52.364;6.580;2023-02-23T07:52:51;101148.19;;;7.52;100.00
60307;BME280;46155;52.364;6.580;2023-02-23T07:55:17;101163.31;;;7.56;100.00
60307;BME280;46155;52.364;6.580;2023-02-23T07:57:43;101169.59;;;7.58;100.00
60307;BME280;46155;52.364;6.580;2023-02-23T08:00:10;101162.78;;;7.61;100.00
60307;BME280;46155;52.364;6.580;2023-02-23T08:02:35;101165.03;;;7.56;100.00
60307;BME280;46155;52.364;6.580;2023-02-23T08:05:01;101168.66;;;7.58;100.00
60307;BME280;46155;52.364;6.580;2023-02-23T08:07:26;101171.41;;;7.59;100.00
60307;BME280;46155;52.364;6.580;2023-02-23T08:09:51;101169.59;;;7.58;100.00
60307;BME280;46155;52.364;6.580;2023-02-23T08:12:17;101168.78;;;7.59;100.00
60307;BME280;46155;52.364;6.580;2023-02-23T08:14:43;101175.84;;;7.61;100.00
60307;BME280;46155;52.364;6.580;2023-02-23T08:17:09;101183.91;;;7.64;100.00
60307;BME280;46155;52.364;6.580;2023-02-23T08:19:35;101180.28;;;7.62;100.00
60307;BME280;46155;52.364;6.580;2023-02-23T08:22:02;101178.69;;;7.64;100.00
60307;BME280;46155;52.364;6.580;2023-02-23T08:24:28;101184.59;;;7.61;100.00
60307;BME280;46155;52.364;6.580;2023-02-23T08:26:55;101182.34;;;7.66;100.00
60307;BME280;46155;52.364;6.580;2023-02-23T08:29:21;101182.34;;;7.66;100.00
60307;BME280;46155;52.364;6.580;2023-02-23T08:31:46;101189.66;;;7.70;100.00
60307;BME280;46155;52.364;6.580;2023-02-23T08:34:12;101188.06;;;7.72;100.00
60307;BME280;46155;52.364;6.580;2023-02-23T08:36:38;101186.75;;;7.67;100.00
60307;BME280;46155;52.364;6.580;2023-02-23T08:39:05;101189.22;;;7.75;100.00
60307;BME280;46155;52.364;6.580;2023-02-23T08:41:32;101185.97;;;7.68;100.00
60307;BME280;46155;52.364;6.580;2023-02-23T08:43:57;101198.75;;;7.75;100.00
60307;BME280;46155;52.364;6.580;2023-02-23T08:46:23;101193.03;;;7.69;100.00
60307;BME280;46155;52.364;6.580;2023-02-23T08:48:48;101193.28;;;7.72;100.00
60307;BME280;46155;52.364;6.580;2023-02-23T08:51:13;101201.00;;;7.70;100.00
60307;BME280;46155;52.364;6.580;2023-02-23T08:53:39;101189.03;;;7.62;100.00
60307;BME280;46155;52.364;6.580;2023-02-23T08:56:05;101206.47;;;7.73;100.00
60307;BME280;46155;52.364;6.580;2023-02-23T08:58:31;101200.09;;;7.70;100.00
60307;BME280;46155;52.364;6.580;2023-02-23T09:00:58;101201.00;;;7.70;100.00
60307;BME280;46155;52.364;6.580;2023-02-23T09:03:24;101205.91;;;7.55;100.00
60307;BME280;46155;52.364;6.580;2023-02-23T09:05:51;101209.22;;;7.53;100.00
60307;BME280;46155;52.364;6.580;2023-02-23T09:08:17;101211.66;;;7.62;100.00
60307;BME280;46155;52.364;6.580;2023-02-23T09:10:42;101206.84;;;7.56;100.00
60307;BME280;46155;52.364;6.580;2023-02-23T09:13:09;101203.44;;;7.57;100.00
60307;BME280;46155;52.364;6.580;2023-02-23T09:15:36;101212.72;;;7.53;100.00
60307;BME280;46155;52.364;6.580;2023-02-23T09:18:03;101215.59;;;7.56;100.00
60307;BME280;46155;52.364;6.580;2023-02-23T09:20:28;101220.75;;;7.67;100.00
60307;BME280;46155;52.364;6.580;2023-02-23T09:22:53;101214.84;;;7.69;100.00
60307;BME280;46155;52.364;6.580;2023-02-23T09:25:20;101216.56;;;7.69;100.00
60307;BME280;46155;52.364;6.580;2023-02-23T09:27:50;101230.41;;;7.68;100.00
60307;BME280;46155;52.364;6.580;2023-02-23T09:30:17;101219.19;;;7.69;100.00
60307;BME280;46155;52.364;6.580;2023-02-23T09:32:47;101218.28;;;7.68;100.00
60307;BME280;46155;52.364;6.580;2023-02-23T09:35:15;101229.31;;;7.76;100.00
60307;BME280;46155;52.364;6.580;2023-02-23T09:37:50;101226.72;;;7.76;100.00
60307;BME280;46155;52.364;6.580;2023-02-23T09:40:19;101224.84;;;7.85;100.00
60307;BME280;46155;52.364;6.580;2023-02-23T09:45:42;101231.63;;;7.83;100.00
60307;BME280;46155;52.364;6.580;2023-02-23T09:48:22;101239.22;;;7.80;100.00
60307;BME280;46155;52.364;6.580;2023-02-23T09:50:51;101232.06;;;7.78;100.00
60307;BME280;46155;52.364;6.580;2023-02-23T09:53:31;101239.91;;;7.78;100.00
60307;BME280;46155;52.364;6.580;2023-02-23T09:56:03;101239.69;;;7.86;100.00
60307;BME280;46155;52.364;6.580;2023-02-23T09:58:30;101243.69;;;7.81;100.00
60307;BME280;46155;52.364;6.580;2023-02-23T10:01:10;101238.69;;;7.84;100.00
60307;BME280;46155;52.364;6.580;2023-02-23T10:06:27;101242.19;;;7.85;100.00
60307;BME280;46155;52.364;6.580;2023-02-23T10:09:14;101236.06;;;7.84;100.00
60307;BME280;46155;52.364;6.580;2023-02-23T10:11:55;101231.53;;;7.93;100.00
60307;BME280;46155;52.364;6.580;2023-02-23T10:14:50;101232.34;;;7.92;100.00
60307;BME280;46155;52.364;6.580;2023-02-23T10:22:42;101234.84;;;7.69;100.00
60307;BME280;46155;52.364;6.580;2023-02-23T10:25:14;101235.56;;;7.78;100.00
60307;BME280;46155;52.364;6.580;2023-02-23T10:27:44;101243.16;;;7.75;100.00
60307;BME280;46155;52.364;6.580;2023-02-23T10:30:21;101244.22;;;7.77;100.00
60307;BME280;46155;52.364;6.580;2023-02-23T10:35:32;101240.25;;;7.82;100.00
60307;BME280;46155;52.364;6.580;2023-02-23T10:37:59;101245.59;;;7.84;100.00
60307;BME280;46155;52.364;6.580;2023-02-23T10:40:29;101242.75;;;7.81;100.00
60307;BME280;46155;52.364;6.580;2023-02-23T10:42:56;101236.84;;;7.83;100.00
60307;BME280;46155;52.364;6.580;2023-02-23T10:45:24;101245.75;;;7.85;100.00
60307;BME280;46155;52.364;6.580;2023-02-23T10:48:16;101249.25;;;7.86;100.00
60307;BME280;46155;52.364;6.580;2023-02-23T10:50:42;101262.75;;;7.80;100.00
60307;BME280;46155;52.364;6.580;2023-02-23T10:53:36;101265.38;;;7.80;100.00
60307;BME280;46155;52.364;6.580;2023-02-23T10:56:09;101263.34;;;7.88;100.00
60307;BME280;46155;52.364;6.580;2023-02-23T10:58:50;101266.69;;;7.75;100.00
60307;BME280;46155;52.364;6.580;2023-02-23T11:01:32;101276.00;;;7.71;100.00
60307;BME280;46155;52.364;6.580;2023-02-23T11:04:22;101274.28;;;7.72;100.00
60307;BME280;46155;52.364;6.580;2023-02-23T11:06:49;101272.03;;;7.76;100.00
60307;BME280;46155;52.364;6.580;2023-02-23T11:12:15;101270.13;;;7.74;100.00
60307;BME280;46155;52.364;6.580;2023-02-23T11:14:49;101252.09;;;7.67;100.00
60307;BME280;46155;52.364;6.580;2023-02-23T11:19:49;101254.69;;;7.77;100.00
60307;BME280;46155;52.364;6.580;2023-02-23T11:22:20;101260.91;;;7.79;100.00
60307;BME280;46155;52.364;6.580;2023-02-23T11:24:47;101258.00;;;7.86;100.00
60307;BME280;46155;52.364;6.580;2023-02-23T11:27:22;101263.47;;;7.89;100.00
60307;BME280;46155;52.364;6.580;2023-02-23T11:29:49;101261.13;;;7.92;100.00
60307;BME280;46155;52.364;6.580;2023-02-23T11:32:22;101264.50;;;7.91;100.00
60307;BME280;46155;52.364;6.580;2023-02-23T11:35:10;101261.03;;;8.03;100.00
60307;BME280;46155;52.364;6.580;2023-02-23T11:37:36;101258.66;;;8.06;100.00
60307;BME280;46155;52.364;6.580;2023-02-23T11:40:17;101261.38;;;8.07;100.00
60307;BME280;46155;52.364;6.580;2023-02-23T11:43:15;101264.13;;;8.09;100.00
60307;BME280;46155;52.364;6.580;2023-02-23T11:45:46;101272.19;;;8.12;100.00
60307;BME280;46155;52.364;6.580;2023-02-23T11:48:32;101266.53;;;8.18;100.00
60307;BME280;46155;52.364;6.580;2023-02-23T11:50:59;101265.31;;;8.24;100.00
60307;BME280;46155;52.364;6.580;2023-02-23T11:53:36;101272.84;;;8.32;100.00
60307;BME280;46155;52.364;6.580;2023-02-23T11:56:05;101272.84;;;8.32;100.00
60307;BME280;46155;52.364;6.580;2023-02-23T11:58:43;101268.38;;;8.31;100.00
60307;BME280;46155;52.364;6.580;2023-02-23T12:01:15;101271.72;;;8.28;100.00
60307;BME280;46155;52.364;6.580;2023-02-23T12:03:53;101263.47;;;8.23;100.00
60307;BME280;46155;52.364;6.580;2023-02-23T12:06:40;101262.59;;;8.23;100.00
60307;BME280;46155;52.364;6.580;2023-02-23T12:09:15;101260.09;;;8.24;100.00
60307;BME280;46155;52.364;6.580;2023-02-23T12:12:34;101259.41;;;8.27;100.00
60307;BME280;46155;52.364;6.580;2023-02-23T12:14:38;101260.31;;;8.27;100.00
60307;BME280;46155;52.364;6.580;2023-02-23T12:17:23;101260.97;;;8.25;100.00
60307;BME280;46155;52.364;6.580;2023-02-23T12:20:17;101260.88;;;8.23;100.00
60307;BME280;46155;52.364;6.580;2023-02-23T12:22:49;101262.34;;;8.20;100.00
60307;BME280;46155;52.364;6.580;2023-02-23T12:31:12;101274.25;;;8.16;100.00
60307;BME280;46155;52.364;6.580;2023-02-23T12:33:20;101267.59;;;8.20;100.00
60307;BME280;46155;52.364;6.580;2023-02-23T12:35:54;101266.53;;;8.18;100.00
60307;BME280;46155;52.364;6.580;2023-02-23T12:38:25;101265.53;;;8.16;100.00
60307;BME280;46155;52.364;6.580;2023-02-23T12:40:59;101272.19;;;8.12;100.00
60307;BME280;46155;52.364;6.580;2023-02-23T12:43:33;101275.44;;;7.98;100.00
60307;BME280;46155;52.364;6.580;2023-02-23T12:53:52;101280.19;;;7.91;100.00
60307;BME280;46155;52.364;6.580;2023-02-23T13:01:57;101274.53;;;7.75;100.00
60307;BME280;46155;52.364;6.580;2023-02-23T13:07:33;101278.75;;;7.73;100.00
60307;BME280;46155;52.364;6.580;2023-02-23T13:13:04;101282.75;;;7.80;100.00
60307;BME280;46155;52.364;6.580;2023-02-23T13:15:49;101284.22;;;7.76;100.00
60307;BME280;46155;52.364;6.580;2023-02-23T13:21:28;101272.66;;;7.84;100.00
60307;BME280;46155;52.364;6.580;2023-02-23T13:29:34;101264.28;;;7.88;100.00
60307;BME280;46155;52.364;6.580;2023-02-23T13:32:03;101267.25;;;7.93;100.00
60307;BME280;46155;52.364;6.580;2023-02-23T13:34:38;101266.81;;;7.99;100.00
60307;BME280;46155;52.364;6.580;2023-02-23T13:37:07;101277.13;;;8.19;100.00
60307;BME280;46155;52.364;6.580;2023-02-23T13:39:45;101273.84;;;8.22;100.00
60307;BME280;46155;52.364;6.580;2023-02-23T13:44:47;101274.22;;;8.26;100.00
60307;BME280;46155;52.364;6.580;2023-02-23T13:47:35;101275.56;;;8.33;100.00
60307;BME280;46155;52.364;6.580;2023-02-23T13:52:52;101275.47;;;8.32;100.00
60307;BME280;46155;52.364;6.580;2023-02-23T13:55:35;101279.28;;;8.25;100.00
60307;BME280;46155;52.364;6.580;2023-02-23T13:58:05;101276.00;;;8.27;100.00
60307;BME280;46155;52.364;6.580;2023-02-23T14:00:35;101281.03;;;8.36;100.00
60307;BME280;46155;52.364;6.580;2023-02-23T14:03:03;101271.00;;;8.31;100.00
60307;BME280;46155;52.364;6.580;2023-02-23T14:05:30;101274.91;;;8.36;100.00
60307;BME280;46155;52.364;6.580;2023-02-23T14:08:00;101275.81;;;8.36;100.00
60307;BME280;46155;52.364;6.580;2023-02-23T14:10:38;101279.25;;;8.35;100.00
60307;BME280;46155;52.364;6.580;2023-02-23T14:16:07;101280.56;;;8.30;100.00
60307;BME280;46155;52.364;6.580;2023-02-23T14:18:33;101279.78;;;8.31;100.00
60307;BME280;46155;52.364;6.580;2023-02-23T14:21:12;101283.16;;;8.18;100.00
60307;BME280;46155;52.364;6.580;2023-02-23T14:24:02;101280.78;;;8.21;100.00
60307;BME280;46155;52.364;6.580;2023-02-23T14:31:35;101280.75;;;8.09;100.00
60307;BME280;46155;52.364;6.580;2023-02-23T14:34:06;101283.59;;;8.13;100.00
60307;BME280;46155;52.364;6.580;2023-02-23T14:36:35;101273.56;;;8.07;100.00
60307;BME280;46155;52.364;6.580;2023-02-23T14:39:07;101280.31;;;8.15;100.00
60307;BME280;46155;52.364;6.580;2023-02-23T14:41:44;101277.69;;;8.15;100.00
60307;BME280;46155;52.364;6.580;2023-02-23T14:44:16;101276.75;;;8.37;100.00
60307;BME280;46155;52.364;6.580;2023-02-23T14:46:53;101275.88;;;8.48;100.00
60307;BME280;46155;52.364;6.580;2023-02-23T14:49:20;101280.56;;;8.52;100.00
60307;BME280;46155;52.364;6.580;2023-02-23T14:51:54;101274.78;;;8.34;100.00
60307;BME280;46155;52.364;6.580;2023-02-23T14:54:27;101267.41;;;8.40;100.00
60307;BME280;46155;52.364;6.580;2023-02-23T14:56:55;101263.66;;;8.37;100.00
60307;BME280;46155;52.364;6.580;2023-02-23T14:59:28;101264.66;;;8.39;100.00
60307;BME280;46155;52.364;6.580;2023-02-23T15:01:55;101262.06;;;8.39;100.00
60307;BME280;46155;52.364;6.580;2023-02-23T15:04:25;101260.47;;;8.41;100.00
60307;BME280;46155;52.364;6.580;2023-02-23T15:06:56;101253.13;;;8.47;100.00
60307;BME280;46155;52.364;6.580;2023-02-23T15:09:29;101266.25;;;8.71;100.00
60307;BME280;46155;52.364;6.580;2023-02-23T15:11:56;101256.34;;;8.67;100.00
60307;BME280;46155;52.364;6.580;2023-02-23T15:14:23;101253.59;;;8.53;100.00
60307;BME280;46155;52.364;6.580;2023-02-23T15:16:49;101255.63;;;8.57;100.00
60307;BME280;46155;52.364;6.580;2023-02-23T15:19:17;101253.50;;;8.64;100.00
60307;BME280;46155;52.364;6.580;2023-02-23T15:21:49;101250.06;;;8.53;100.00
60307;BME280;46155;52.364;6.580;2023-02-23T15:24:14;101261.75;;;8.46;100.00
60307;BME280;46155;52.364;6.580;2023-02-23T15:26:41;101262.25;;;8.52;100.00
60307;BME280;46155;52.364;6.580;2023-02-23T15:31:39;101275.69;;;8.69;100.00
60307;BME280;46155;52.364;6.580;2023-02-23T15:34:15;101271.84;;;8.64;100.00
60307;BME280;46155;52.364;6.580;2023-02-23T15:36:46;101278.88;;;8.65;100.00
60307;BME280;46155;52.364;6.580;2023-02-23T15:39:16;101281.13;;;8.60;100.00
60307;BME280;46155;52.364;6.580;2023-02-23T15:41:44;101277.50;;;8.58;100.00
60307;BME280;46155;52.364;6.580;2023-02-23T15:44:23;101275.09;;;8.49;100.00
60307;BME280;46155;52.364;6.580;2023-02-23T15:46:54;101286.03;;;8.55;100.00
60307;BME280;46155;52.364;6.580;2023-02-23T15:49:25;101278.75;;;8.51;100.00
60307;BME280;46155;52.364;6.580;2023-02-23T15:52:01;101288.19;;;8.49;100.00
60307;BME280;46155;52.364;6.580;2023-02-23T15:54:31;101282.03;;;8.49;100.00
60307;BME280;46155;52.364;6.580;2023-02-23T15:57:06;101282.44;;;8.43;100.00
60307;BME280;46155;52.364;6.580;2023-02-23T15:59:38;101272.94;;;8.55;100.00
60307;BME280;46155;52.364;6.580;2023-02-23T16:02:13;101269.59;;;8.46;100.00
60307;BME280;46155;52.364;6.580;2023-02-23T16:04:40;101277.94;;;8.52;100.00
60307;BME280;46155;52.364;6.580;2023-02-23T16:09:47;101273.06;;;8.35;100.00
60307;BME280;46155;52.364;6.580;2023-02-23T16:12:18;101270.53;;;8.24;100.00
60307;BME280;46155;52.364;6.580;2023-02-23T16:19:55;101290.81;;;8.05;100.00
60307;BME280;46155;52.364;6.580;2023-02-23T16:22:30;101289.88;;;7.38;100.00
60307;BME280;46155;52.364;6.580;2023-02-23T16:25:09;101291.59;;;7.27;100.00
60307;BME280;46155;52.364;6.580;2023-02-23T16:27:37;101293.69;;;7.31;100.00
60307;BME280;46155;52.364;6.580;2023-02-23T16:30:21;101295.44;;;7.20;100.00
60307;BME280;46155;52.364;6.580;2023-02-23T16:33:01;101299.84;;;7.32;100.00
60307;BME280;46155;52.364;6.580;2023-02-23T16:35:53;101297.47;;;7.35;100.00
60307;BME280;46155;52.364;6.580;2023-02-23T16:38:55;101306.38;;;7.27;100.00
60307;BME280;46155;52.364;6.580;2023-02-23T16:41:22;101310.81;;;7.28;100.00
60307;BME280;46155;52.364;6.580;2023-02-23T16:43:50;101303.50;;;7.23;100.00
60307;BME280;46155;52.364;6.580;2023-02-23T16:46:17;101322.41;;;7.31;100.00
60307;BME280;46155;52.364;6.580;2023-02-23T16:48:42;101326.84;;;7.32;100.00
60307;BME280;46155;52.364;6.580;2023-02-23T16:51:15;101332.47;;;7.27;100.00
60307;BME280;46155;52.364;6.580;2023-02-23T16:53:42;101326.03;;;6.91;100.00
60307;BME280;46155;52.364;6.580;2023-02-23T16:56:09;101327.75;;;6.80;100.00
60307;BME280;46155;52.364;6.580;2023-02-23T16:58:39;101319.91;;;6.49;100.00
60307;BME280;46155;52.364;6.580;2023-02-23T17:01:05;101315.34;;;6.46;100.00
60307;BME280;46155;52.364;6.580;2023-02-23T17:03:31;101330.34;;;6.49;100.00
60307;BME280;46155;52.364;6.580;2023-02-23T17:05:57;101323.72;;;6.42;100.00
60307;BME280;46155;52.364;6.580;2023-02-23T17:08:23;101326.56;;;6.55;100.00
60307;BME280;46155;52.364;6.580;2023-02-23T17:10:50;101338.97;;;6.68;100.00
60307;BME280;46155;52.364;6.580;2023-02-23T17:13:21;101346.00;;;6.80;100.00
60307;BME280;46155;52.364;6.580;2023-02-23T17:15:48;101356.31;;;6.78;100.00
60307;BME280;46155;52.364;6.580;2023-02-23T17:18:19;101357.22;;;6.79;100.00
60307;BME280;46155;52.364;6.580;2023-02-23T17:20:45;101358.13;;;6.69;100.00
60307;BME280;46155;52.364;6.580;2023-02-23T17:23:11;101359.16;;;6.50;100.00
60307;BME280;46155;52.364;6.580;2023-02-23T17:25:36;101364.38;;;6.30;100.00
60307;BME280;46155;52.364;6.580;2023-02-23T17:28:02;101366.78;;;6.08;100.00
60307;BME280;46155;52.364;6.580;2023-02-23T17:30:28;101375.56;;;6.08;100.00
60307;BME280;46155;52.364;6.580;2023-02-23T17:32:56;101370.63;;;6.22;100.00
60307;BME280;46155;52.364;6.580;2023-02-23T17:35:22;101375.97;;;6.33;100.00
60307;BME280;46155;52.364;6.580;2023-02-23T17:37:48;101372.84;;;6.37;100.00
60307;BME280;46155;52.364;6.580;2023-02-23T17:40:20;101362.91;;;6.13;100.00
60307;BME280;46155;52.364;6.580;2023-02-23T17:42:51;101369.84;;;6.23;100.00
60307;BME280;46155;52.364;6.580;2023-02-23T17:45:16;101376.72;;;6.22;100.00
60307;BME280;46155;52.364;6.580;2023-02-23T17:47:42;101370.72;;;6.13;100.00
60307;BME280;46155;52.364;6.580;2023-02-23T17:50:08;101370.16;;;6.07;100.00
60307;BME280;46155;52.364;6.580;2023-02-23T17:52:35;101382.16;;;5.75;100.00
60307;BME280;46155;52.364;6.580;2023-02-23T17:55:00;101379.31;;;5.82;100.00
60307;BME280;46155;52.364;6.580;2023-02-23T17:57:26;101383.72;;;5.73;100.00
60307;BME280;46155;52.364;6.580;2023-02-23T17:59:53;101388.66;;;5.70;100.00
60307;BME280;46155;52.364;6.580;2023-02-23T18:02:19;101380.22;;;5.54;100.00
60307;BME280;46155;52.364;6.580;2023-02-23T18:04:49;101396.13;;;5.57;100.00
60307;BME280;46155;52.364;6.580;2023-02-23T18:07:17;101397.34;;;5.60;100.00
60307;BME280;46155;52.364;6.580;2023-02-23T18:09:43;101388.91;;;5.63;100.00
60307;BME280;46155;52.364;6.580;2023-02-23T18:12:08;101394.94;;;5.82;100.00
60307;BME280;46155;52.364;6.580;2023-02-23T18:14:34;101397.13;;;5.97;100.00
60307;BME280;46155;52.364;6.580;2023-02-23T18:17:02;101397.44;;;6.10;100.00
60307;BME280;46155;52.364;6.580;2023-02-23T18:19:28;101406.84;;;6.18;100.00
60307;BME280;46155;52.364;6.580;2023-02-23T18:21:54;101405.66;;;6.15;100.00
60307;BME280;46155;52.364;6.580;2023-02-23T18:24:22;101394.97;;;6.22;100.00